createdAt,value
2023-01-19T00:00:50.705Z,98768.50
2023-01-19T00:03:17.820Z,98774.50
2023-01-19T00:05:44.904Z,98770.34
2023-01-19T00:08:17.671Z,98776.38
2023-01-19T00:10:49.279Z,98774.97
2023-01-19T00:13:15.992Z,98775.72
2023-01-19T00:15:42.865Z,98771.16
2023-01-19T00:18:10.877Z,98772.00
2023-01-19T00:20:38.526Z,98775.47
2023-01-19T00:23:05.138Z,98774.50
2023-01-19T00:25:31.719Z,98763.88
2023-01-19T00:28:00.645Z,98766.31
2023-01-19T00:30:28.166Z,98769.75
2023-01-19T00:32:54.588Z,98773.31
2023-01-19T00:35:21.103Z,98776.13
2023-01-19T00:37:47.599Z,98782.03
2023-01-19T00:40:14.103Z,98781.25
2023-01-19T00:42:40.726Z,98791.41
2023-01-19T00:45:08.803Z,98781.91
2023-01-19T00:47:35.244Z,98789.69
2023-01-19T00:50:01.756Z,98799.38
2023-01-19T00:52:28.185Z,98794.25
2023-01-19T00:54:54.637Z,98800.16
2023-01-19T00:57:21.064Z,98802.69
2023-01-19T00:59:47.527Z,98795.69
2023-01-19T01:02:14.349Z,98803.88
2023-01-19T01:04:40.935Z,98814.00
2023-01-19T01:07:07.566Z,98810.34
2023-01-19T01:09:33.965Z,98810.66
2023-01-19T01:12:00.443Z,98811.03
2023-01-19T01:14:26.875Z,98817.72
2023-01-19T01:16:53.420Z,98808.94
2023-01-19T01:19:20.447Z,98819.09
2023-01-19T01:21:46.853Z,98826.00
2023-01-19T01:24:13.363Z,98820.78
2023-01-19T01:26:39.840Z,98806.91
2023-01-19T01:29:06.511Z,98822.91
2023-01-19T01:31:32.976Z,98827.28
2023-01-19T01:33:59.392Z,98824.88
2023-01-19T01:36:28.986Z,98824.78
2023-01-19T01:38:55.470Z,98825.66
2023-01-19T01:41:22.025Z,98825.03
2023-01-19T01:43:56.543Z,98833.31
2023-01-19T01:46:23.028Z,98835.09
2023-01-19T01:49:10.752Z,98824.69
2023-01-19T01:51:46.999Z,98824.69
2023-01-19T01:54:19.801Z,98830.88
2023-01-19T01:56:52.364Z,98828.66
2023-01-19T01:59:27.059Z,98831.53
2023-01-19T02:02:14.454Z,98817.88
2023-01-19T02:04:49.173Z,98820.47
2023-01-19T02:07:42.812Z,98831.22
2023-01-19T02:10:28.156Z,98829.59
2023-01-19T02:13:13.716Z,98834.00
2023-01-19T02:15:43.643Z,98834.78
2023-01-19T02:18:10.798Z,98838.06
2023-01-19T02:20:37.588Z,98836.19
2023-01-19T02:23:08.433Z,98840.31
2023-01-19T02:25:34.994Z,98825.59
2023-01-19T02:28:01.655Z,98831.38
2023-01-19T02:30:28.448Z,98828.03
2023-01-19T02:32:54.929Z,98833.00
2023-01-19T02:35:22.495Z,98836.41
2023-01-19T02:37:49.147Z,98834.06
2023-01-19T02:40:19.706Z,98832.44
2023-01-19T02:42:50.453Z,98844.66
2023-01-19T02:45:20.747Z,98840.56
2023-01-19T02:47:50.018Z,98826.91
2023-01-19T02:50:36.172Z,98820.91
2023-01-19T02:53:40.493Z,98835.94
2023-01-19T02:56:29.376Z,98833.53
2023-01-19T02:59:08.911Z,98829.28
2023-01-19T03:01:58.395Z,98834.25
2023-01-19T03:04:40.665Z,98839.44
2023-01-19T03:07:34.664Z,98825.72
2023-01-19T03:10:26.648Z,98825.03
2023-01-19T03:13:16.602Z,98818.00
2023-01-19T03:16:06.511Z,98829.25
2023-01-19T03:18:34.845Z,98832.63
2023-01-19T03:21:05.593Z,98841.72
2023-01-19T03:23:32.997Z,98843.25
2023-01-19T03:26:00.855Z,98842.03
2023-01-19T03:28:29.547Z,98839.34
2023-01-19T03:31:00.667Z,98837.31
2023-01-19T03:33:36.486Z,98840.75
2023-01-19T03:36:06.973Z,98843.22
2023-01-19T03:38:36.824Z,98842.31
2023-01-19T03:41:08.183Z,98840.47
2023-01-19T03:43:35.953Z,98850.78
2023-01-19T03:46:03.998Z,98848.03
2023-01-19T03:48:31.108Z,98856.03
2023-01-19T03:50:58.072Z,98847.25
2023-01-19T03:53:24.507Z,98855.75
2023-01-19T03:55:51.753Z,98841.78
2023-01-19T03:58:18.205Z,98841.59
2023-01-19T04:00:45.785Z,98836.31
2023-01-19T04:03:16.777Z,98840.59
2023-01-19T04:05:43.457Z,98848.25
2023-01-19T04:08:10.455Z,98848.97
2023-01-19T04:10:37.327Z,98852.22
2023-01-19T04:13:04.299Z,98850.59
2023-01-19T04:15:31.328Z,98851.50
2023-01-19T04:17:58.797Z,98846.53
2023-01-19T04:20:27.224Z,98847.50
2023-01-19T04:22:54.905Z,98845.75
2023-01-19T04:25:21.498Z,98851.16
2023-01-19T04:27:52.095Z,98840.94
2023-01-19T04:30:18.801Z,98839.25
2023-01-19T04:32:45.346Z,98828.25
2023-01-19T04:35:11.792Z,98831.91
2023-01-19T04:37:38.290Z,98841.47
2023-01-19T04:40:05.207Z,98832.91
2023-01-19T04:42:32.287Z,98836.47
2023-01-19T04:44:58.927Z,98840.69
2023-01-19T04:47:25.330Z,98842.31
2023-01-19T04:49:51.758Z,98833.31
2023-01-19T04:52:18.238Z,98830.53
2023-01-19T04:54:44.762Z,98838.41
2023-01-19T04:57:11.223Z,98833.28
2023-01-19T04:59:37.690Z,98841.91
2023-01-19T05:02:04.123Z,98833.41
2023-01-19T05:04:30.547Z,98842.75
2023-01-19T05:06:58.182Z,98836.78
2023-01-19T05:09:25.801Z,98854.84
2023-01-19T05:11:52.259Z,98847.13
2023-01-19T05:14:18.803Z,98854.34
2023-01-19T05:16:45.245Z,98853.50
2023-01-19T05:19:12.207Z,98859.50
2023-01-19T05:21:38.843Z,98859.34
2023-01-19T05:24:05.567Z,98868.66
2023-01-19T05:26:31.998Z,98867.41
2023-01-19T05:28:58.409Z,98876.00
2023-01-19T05:31:25.147Z,98865.47
2023-01-19T05:33:51.739Z,98868.63
2023-01-19T05:36:18.362Z,98879.69
2023-01-19T05:38:44.788Z,98857.44
2023-01-19T05:41:11.555Z,98869.69
2023-01-19T05:43:37.978Z,98856.78
2023-01-19T05:46:05.248Z,98876.00
2023-01-19T05:48:31.712Z,98877.03
2023-01-19T05:50:59.420Z,98867.63
2023-01-19T05:53:26.265Z,98877.31
2023-01-19T05:55:52.720Z,98869.97
2023-01-19T05:58:19.268Z,98876.97
2023-01-19T06:00:45.881Z,98872.94
2023-01-19T06:03:12.439Z,98873.22
2023-01-19T06:05:39.409Z,98884.47
2023-01-19T06:08:05.972Z,98875.19
2023-01-19T06:10:32.428Z,98878.59
2023-01-19T06:12:59.330Z,98881.22
2023-01-19T06:15:25.905Z,98885.63
2023-01-19T06:17:52.310Z,98890.09
2023-01-19T06:20:18.775Z,98892.59
2023-01-19T06:22:45.244Z,98884.66
2023-01-19T06:25:11.937Z,98895.59
2023-01-19T06:27:39.753Z,98899.50
2023-01-19T06:30:06.748Z,98903.53
2023-01-19T06:32:33.291Z,98909.50
2023-01-19T06:34:59.708Z,98901.44
2023-01-19T06:37:28.308Z,98894.22
2023-01-19T06:39:54.791Z,98897.47
2023-01-19T06:42:21.788Z,98895.56
2023-01-19T06:44:48.506Z,98896.63
2023-01-19T06:47:16.604Z,98900.72
2023-01-19T06:49:43.371Z,98901.63
2023-01-19T06:52:11.414Z,98898.50
2023-01-19T06:54:37.948Z,98903.47
2023-01-19T06:57:04.560Z,98904.28
2023-01-19T06:59:32.044Z,98912.09
2023-01-19T07:01:58.950Z,98912.00
2023-01-19T07:04:26.853Z,98910.28
2023-01-19T07:06:53.266Z,98927.47
2023-01-19T07:09:20.375Z,98929.94
2023-01-19T07:11:47.965Z,98930.78
2023-01-19T07:14:14.875Z,98934.22
2023-01-19T07:16:41.451Z,98943.53
2023-01-19T07:19:10.565Z,98943.41
2023-01-19T07:21:37.373Z,98944.03
2023-01-19T07:24:03.904Z,98940.72
2023-01-19T07:26:30.854Z,98945.09
2023-01-19T07:28:57.388Z,98952.75
2023-01-19T07:31:24.049Z,98948.50
2023-01-19T07:33:50.669Z,98960.47
2023-01-19T07:36:17.087Z,98973.47
2023-01-19T07:38:43.538Z,98974.31
2023-01-19T07:41:10.332Z,98969.97
2023-01-19T07:43:36.810Z,98969.09
2023-01-19T07:46:05.043Z,98969.91
2023-01-19T07:48:31.616Z,98968.91
2023-01-19T07:51:05.661Z,98978.22
2023-01-19T07:53:32.724Z,98979.06
2023-01-19T07:55:59.211Z,98980.63
2023-01-19T07:58:26.323Z,98987.38
2023-01-19T08:00:52.857Z,98991.84
2023-01-19T08:03:19.481Z,98980.63
2023-01-19T08:05:50.464Z,98985.75
2023-01-19T08:08:17.005Z,98984.84
2023-01-19T08:10:43.426Z,98979.50
2023-01-19T08:13:09.894Z,98982.75
2023-01-19T08:15:36.405Z,98977.50
2023-01-19T08:18:05.520Z,98975.88
2023-01-19T08:20:32.253Z,98974.94
2023-01-19T08:23:02.889Z,98972.19
2023-01-19T08:25:33.636Z,98978.31
2023-01-19T08:28:00.363Z,98973.81
2023-01-19T08:30:26.951Z,98966.19
2023-01-19T08:32:54.769Z,98977.41
2023-01-19T08:35:22.076Z,98976.44
2023-01-19T08:37:48.572Z,98976.44
2023-01-19T08:40:15.026Z,98985.94
2023-01-19T08:42:41.512Z,98977.19
2023-01-19T08:45:09.268Z,98967.91
2023-01-19T08:47:35.740Z,98968.72
2023-01-19T08:50:02.836Z,98970.59
2023-01-19T08:52:29.313Z,98969.03
2023-01-19T08:54:55.722Z,98970.91
2023-01-19T08:57:22.126Z,98978.03
2023-01-19T08:59:48.591Z,98980.63
2023-01-19T09:02:15.055Z,98976.50
2023-01-19T09:04:41.509Z,98986.28
2023-01-19T09:07:07.987Z,98976.81
2023-01-19T09:09:37.742Z,98987.91
2023-01-19T09:12:04.343Z,98986.81
2023-01-19T09:14:30.827Z,98983.34
2023-01-19T09:16:57.354Z,98986.66
2023-01-19T09:19:23.752Z,98982.41
2023-01-19T09:21:50.879Z,98972.16
2023-01-19T09:24:17.342Z,98975.50
2023-01-19T09:26:43.807Z,98976.47
2023-01-19T09:29:10.255Z,98982.50
2023-01-19T09:31:37.351Z,98986.75
2023-01-19T09:34:03.765Z,98984.06
2023-01-19T09:36:30.308Z,98986.75
2023-01-19T09:38:56.763Z,98992.03
2023-01-19T09:41:25.831Z,98987.66
2023-01-19T09:43:58.490Z,98990.25
2023-01-19T09:46:35.381Z,98992.81
2023-01-19T09:49:05.007Z,98985.19
2023-01-19T09:51:44.546Z,98991.22
2023-01-19T09:54:20.727Z,98989.41
2023-01-19T09:56:51.989Z,98986.81
2023-01-19T09:59:26.145Z,98991.94
2023-01-19T10:02:19.512Z,98983.31
2023-01-19T10:04:54.989Z,98989.09
2023-01-19T10:07:43.889Z,98991.75
2023-01-19T10:10:19.280Z,98993.31
2023-01-19T10:13:29.465Z,98998.34
2023-01-19T10:16:07.208Z,99000.72
2023-01-19T10:18:43.005Z,98993.69
2023-01-19T10:21:21.912Z,99000.59
2023-01-19T10:24:07.541Z,99012.44
2023-01-19T10:26:37.975Z,99006.69
2023-01-19T10:29:08.670Z,99014.78
2023-01-19T10:31:37.922Z,99001.41
2023-01-19T10:34:04.482Z,99011.28
2023-01-19T10:36:36.599Z,99014.50
2023-01-19T10:39:07.371Z,99009.28
2023-01-19T10:41:47.540Z,99007.44
2023-01-19T10:44:24.159Z,99009.06
2023-01-19T10:46:51.258Z,99007.41
2023-01-19T10:49:38.201Z,98997.94
2023-01-19T10:52:18.993Z,99015.16
2023-01-19T10:54:48.122Z,99015.16
2023-01-19T10:57:23.960Z,99014.06
2023-01-19T10:59:51.398Z,99023.41
2023-01-19T11:02:20.063Z,99021.34
2023-01-19T11:04:50.161Z,99016.13
2023-01-19T11:07:25.880Z,99016.75
2023-01-19T11:10:21.202Z,99014.06
2023-01-19T11:12:53.759Z,99015.59
2023-01-19T11:15:25.868Z,99021.59
2023-01-19T11:17:53.486Z,99017.00
2023-01-19T11:20:22.793Z,99010.00
2023-01-19T11:23:04.545Z,99006.56
2023-01-19T11:25:33.240Z,99003.66
2023-01-19T11:28:00.270Z,99009.72
2023-01-19T11:30:26.991Z,99008.50
2023-01-19T11:32:54.324Z,99003.22
2023-01-19T11:35:39.067Z,98992.78
2023-01-19T11:38:18.690Z,98997.81
2023-01-19T11:40:52.643Z,99009.06
2023-01-19T11:43:20.874Z,99008.13
2023-01-19T11:45:47.441Z,99006.97
2023-01-19T11:48:28.232Z,99001.00
2023-01-19T11:50:55.321Z,99003.75
2023-01-19T11:53:26.636Z,99010.03
2023-01-19T11:55:58.387Z,99003.91
2023-01-19T11:58:25.977Z,99004.66
2023-01-19T12:01:00.526Z,98997.69
2023-01-19T12:03:37.776Z,98998.69
2023-01-19T12:06:07.904Z,98999.59
2023-01-19T12:09:00.098Z,99000.31
2023-01-19T12:11:33.746Z,99006.34
2023-01-19T12:14:00.254Z,99002.06
2023-01-19T12:16:29.631Z,99001.38
2023-01-19T12:19:13.222Z,99004.63
2023-01-19T12:21:39.668Z,99013.34
2023-01-19T12:24:18.655Z,99001.44
2023-01-19T12:26:58.223Z,99004.13
2023-01-19T12:29:28.384Z,99000.19
2023-01-19T12:32:13.014Z,98997.59
2023-01-19T12:34:51.630Z,98999.44
2023-01-19T12:37:39.600Z,98996.81
2023-01-19T12:40:26.828Z,98993.22
2023-01-19T12:43:03.770Z,98989.28
2023-01-19T12:45:32.921Z,98992.09
2023-01-19T12:47:59.626Z,98986.75
2023-01-19T12:50:26.673Z,98984.78
2023-01-19T12:52:57.319Z,98977.94
2023-01-19T12:55:26.938Z,98984.91
2023-01-19T12:58:00.449Z,98989.22
2023-01-19T13:00:33.721Z,98987.22
2023-01-19T13:03:02.563Z,98977.78
2023-01-19T13:05:33.263Z,98983.81
2023-01-19T13:08:03.134Z,98972.63
2023-01-19T13:10:54.701Z,98981.22
2023-01-19T13:13:23.546Z,98986.38
2023-01-19T13:15:50.981Z,98981.91
2023-01-19T13:18:20.113Z,98982.09
2023-01-19T13:21:00.191Z,98985.59
2023-01-19T13:23:50.153Z,98983.63
2023-01-19T13:26:21.600Z,98978.47
2023-01-19T13:28:54.920Z,98983.47
2023-01-19T13:31:22.372Z,98988.91
2023-01-19T13:33:51.679Z,98994.97
2023-01-19T13:36:19.809Z,98989.53
2023-01-19T13:38:47.748Z,98992.16
2023-01-19T13:41:16.110Z,98985.69
2023-01-19T13:43:42.988Z,98987.75
2023-01-19T13:46:11.742Z,98994.97
2023-01-19T13:48:38.369Z,98993.97
2023-01-19T13:51:07.344Z,98990.19
2023-01-19T13:53:34.057Z,98994.28
2023-01-19T13:56:20.638Z,98997.75
2023-01-19T13:59:12.866Z,99002.81
2023-01-19T14:01:42.230Z,99008.66
2023-01-19T14:04:28.447Z,99015.09
2023-01-19T14:06:57.868Z,99009.25
2023-01-19T14:09:24.335Z,99016.00
2023-01-19T14:12:13.966Z,99019.41
2023-01-19T14:14:42.407Z,99022.31
2023-01-19T14:17:29.525Z,99025.91
2023-01-19T14:20:00.899Z,99030.25
2023-01-19T14:22:41.663Z,99019.06
2023-01-19T14:25:27.927Z,99029.78
2023-01-19T14:28:32.046Z,99029.63
2023-01-19T14:31:17.400Z,99040.84
2023-01-19T14:33:46.788Z,99033.53
2023-01-19T14:36:21.259Z,99032.53
2023-01-19T14:38:49.791Z,99034.16
2023-01-19T14:41:24.132Z,99036.91
2023-01-19T14:43:50.637Z,99036.22
2023-01-19T14:46:20.270Z,99032.84
2023-01-19T14:48:51.863Z,99034.59
2023-01-19T14:51:20.620Z,99037.06
2023-01-19T14:53:50.187Z,99044.75
2023-01-19T14:56:28.182Z,99042.84
2023-01-19T14:58:59.006Z,99038.91
2023-01-19T15:01:28.456Z,99045.03
2023-01-19T15:03:58.435Z,99044.19
2023-01-19T15:06:26.347Z,99043.19
2023-01-19T15:08:55.753Z,99049.25
2023-01-19T15:11:32.014Z,99042.34
2023-01-19T15:13:59.391Z,99037.34
2023-01-19T15:16:26.708Z,99044.28
2023-01-19T15:18:53.219Z,99044.81
2023-01-19T15:21:23.456Z,99049.88
2023-01-19T15:23:49.984Z,99052.13
2023-01-19T15:26:18.383Z,99052.91
2023-01-19T15:28:45.601Z,99043.84
2023-01-19T15:31:15.290Z,99057.44
2023-01-19T15:33:41.883Z,99057.34
2023-01-19T15:36:17.974Z,99059.34
2023-01-19T15:38:45.192Z,99052.50
2023-01-19T15:41:20.752Z,99059.25
2023-01-19T15:43:48.352Z,99059.41
2023-01-19T15:46:16.065Z,99062.56
2023-01-19T15:48:42.596Z,99057.97
2023-01-19T15:51:13.523Z,99064.75
2023-01-19T15:53:40.537Z,99057.97
2023-01-19T15:56:14.846Z,99062.56
2023-01-19T15:58:41.681Z,99065.19
2023-01-19T16:01:12.474Z,99060.13
2023-01-19T16:03:38.948Z,99057.63
2023-01-19T16:06:05.464Z,99057.94
2023-01-19T16:08:31.913Z,99058.84
2023-01-19T16:11:03.715Z,99062.03
2023-01-19T16:13:30.967Z,99061.19
2023-01-19T16:16:01.851Z,99062.03
2023-01-19T16:18:28.300Z,99063.78
2023-01-19T16:20:54.764Z,99065.47
2023-01-19T16:23:21.199Z,99065.53
2023-01-19T16:26:30.430Z,99064.91
2023-01-19T16:28:58.511Z,99069.03
2023-01-19T16:31:25.196Z,99066.59
2023-01-19T16:33:51.648Z,99072.81
2023-01-19T16:36:28.043Z,99082.59
2023-01-19T16:38:57.565Z,99083.94
2023-01-19T16:41:23.966Z,99082.44
2023-01-19T16:43:54.489Z,99077.09
2023-01-19T16:46:23.839Z,99075.28
2023-01-19T16:48:50.729Z,99083.66
2023-01-19T16:51:17.857Z,99077.59
2023-01-19T16:53:44.868Z,99074.78
2023-01-19T16:56:13.728Z,99082.81
2023-01-19T16:58:41.017Z,99077.47
2023-01-19T17:01:09.442Z,99075.63
2023-01-19T17:03:35.988Z,99074.84
2023-01-19T17:06:02.462Z,99077.59
2023-01-19T17:08:28.885Z,99077.59
2023-01-19T17:10:55.977Z,99075.84
2023-01-19T17:13:22.763Z,99074.84
2023-01-19T17:15:49.272Z,99083.75
2023-01-19T17:18:15.746Z,99084.72
2023-01-19T17:20:42.235Z,99080.41
2023-01-19T17:23:08.686Z,99084.56
2023-01-19T17:25:35.159Z,99098.31
2023-01-19T17:28:01.557Z,99080.19
2023-01-19T17:30:28.083Z,99084.50
2023-01-19T17:32:54.564Z,99094.03
2023-01-19T17:35:20.988Z,99094.84
2023-01-19T17:37:47.494Z,99090.34
2023-01-19T17:40:14.324Z,99092.88
2023-01-19T17:42:41.745Z,99098.25
2023-01-19T17:45:10.784Z,99100.78
2023-01-19T17:47:38.426Z,99097.28
2023-01-19T17:50:05.322Z,99105.66
2023-01-19T17:52:31.821Z,99110.94
2023-01-19T17:54:58.405Z,99102.69
2023-01-19T17:57:25.024Z,99108.94
2023-01-19T17:59:51.534Z,99104.88
2023-01-19T18:02:18.028Z,99104.00
2023-01-19T18:04:44.593Z,99105.84
2023-01-19T18:07:11.086Z,99105.00
2023-01-19T18:09:37.563Z,99114.31
2023-01-19T18:12:04.163Z,99109.88
2023-01-19T18:14:30.655Z,99117.56
2023-01-19T18:16:57.058Z,99109.94
2023-01-19T18:19:23.501Z,99114.09
2023-01-19T18:21:50.877Z,99112.44
2023-01-19T18:24:17.391Z,99117.50
2023-01-19T18:26:43.908Z,99115.06
2023-01-19T18:29:10.356Z,99121.28
2023-01-19T18:31:36.831Z,99114.44
2023-01-19T18:34:03.581Z,99122.84
2023-01-19T18:36:32.459Z,99118.88
2023-01-19T18:38:58.942Z,99118.09
2023-01-19T18:41:25.646Z,99129.16
2023-01-19T18:43:54.456Z,99128.47
2023-01-19T18:46:21.317Z,99126.75
2023-01-19T18:48:47.852Z,99120.91
2023-01-19T18:51:15.482Z,99117.78
2023-01-19T18:53:42.796Z,99116.72
2023-01-19T18:56:12.227Z,99119.34
2023-01-19T18:58:38.937Z,99120.13
2023-01-19T19:01:17.399Z,99112.72
2023-01-19T19:03:43.891Z,99118.50
2023-01-19T19:06:10.366Z,99123.78
2023-01-19T19:08:36.880Z,99118.50
2023-01-19T19:11:07.850Z,99129.59
2023-01-19T19:13:34.413Z,99129.69
2023-01-19T19:16:08.300Z,99135.63
2023-01-19T19:18:36.245Z,99139.03
2023-01-19T19:21:04.982Z,99130.50
2023-01-19T19:23:31.372Z,99133.03
2023-01-19T19:26:02.889Z,99130.63
2023-01-19T19:28:29.356Z,99140.09
2023-01-19T19:31:22.773Z,99140.19
2023-01-19T19:33:50.715Z,99136.03
2023-01-19T19:36:17.509Z,99136.94
2023-01-19T19:38:47.533Z,99137.66
2023-01-19T19:41:19.748Z,99137.59
2023-01-19T19:43:46.241Z,99133.44
2023-01-19T19:46:14.730Z,99145.41
2023-01-19T19:48:41.521Z,99141.09
2023-01-19T19:51:18.435Z,99149.06
2023-01-19T19:53:46.450Z,99152.59
2023-01-19T19:56:13.149Z,99151.03
2023-01-19T19:58:41.736Z,99145.81
2023-01-19T20:01:19.688Z,99144.38
2023-01-19T20:03:46.589Z,99143.59
2023-01-19T20:06:21.363Z,99145.34
2023-01-19T20:08:49.088Z,99153.88
2023-01-19T20:11:17.938Z,99152.06
2023-01-19T20:13:44.827Z,99154.78
2023-01-19T20:16:13.825Z,99153.25
2023-01-19T20:18:42.308Z,99161.88
2023-01-19T20:21:23.768Z,99165.28
2023-01-19T20:23:51.108Z,99160.25
2023-01-19T20:26:20.206Z,99157.13
2023-01-19T20:28:46.779Z,99152.84
2023-01-19T20:31:17.736Z,99164.97
2023-01-19T20:33:44.936Z,99163.19
2023-01-19T20:36:12.008Z,99169.25
2023-01-19T20:38:39.420Z,99170.97
2023-01-19T20:41:07.355Z,99164.16
2023-01-19T20:43:33.971Z,99171.06
2023-01-19T20:46:00.772Z,99170.09
2023-01-19T20:48:27.625Z,99173.59
2023-01-19T20:51:06.506Z,99169.44
2023-01-19T20:53:33.271Z,99169.13
2023-01-19T20:56:06.090Z,99163.97
2023-01-19T20:58:33.235Z,99172.38
2023-01-19T21:00:59.877Z,99168.16
2023-01-19T21:03:26.333Z,99169.78
2023-01-19T21:05:52.820Z,99170.75
2023-01-19T21:08:19.294Z,99182.03
2023-01-19T21:10:46.031Z,99171.88
2023-01-19T21:13:12.468Z,99180.44
2023-01-19T21:15:38.865Z,99181.31
2023-01-19T21:18:05.349Z,99184.97
2023-01-19T21:20:32.876Z,99183.34
2023-01-19T21:22:59.332Z,99179.94
2023-01-19T21:25:25.775Z,99185.22
2023-01-19T21:27:52.267Z,99185.38
2023-01-19T21:30:18.831Z,99192.38
2023-01-19T21:32:45.282Z,99196.78
2023-01-19T21:35:12.093Z,99198.66
2023-01-19T21:37:38.848Z,99202.31
2023-01-19T21:40:06.010Z,99198.13
2023-01-19T21:42:32.692Z,99208.00
2023-01-19T21:44:59.149Z,99209.94
2023-01-19T21:47:25.612Z,99202.31
2023-01-19T21:49:52.101Z,99212.00
2023-01-19T21:52:18.503Z,99211.19
2023-01-19T21:54:44.971Z,99208.13
2023-01-19T21:57:14.977Z,99220.16
2023-01-19T21:59:41.435Z,99215.94
2023-01-19T22:02:11.020Z,99219.44
2023-01-19T22:04:37.519Z,99224.50
2023-01-19T22:07:04.177Z,99225.38
2023-01-19T22:09:33.732Z,99229.66
2023-01-19T22:12:00.204Z,99223.59
2023-01-19T22:14:26.926Z,99222.56
2023-01-19T22:16:53.704Z,99230.31
2023-01-19T22:19:20.681Z,99226.94
2023-01-19T22:21:47.295Z,99231.28
2023-01-19T22:24:13.841Z,99240.81
2023-01-19T22:26:40.294Z,99238.25
2023-01-19T22:29:11.067Z,99237.44
2023-01-19T22:31:38.580Z,99242.56
2023-01-19T22:34:10.352Z,99246.22
2023-01-19T22:36:37.364Z,99242.63
2023-01-19T22:39:09.445Z,99249.50
2023-01-19T22:41:37.950Z,99246.00
2023-01-19T22:44:07.138Z,99247.94
2023-01-19T22:46:35.292Z,99254.72
2023-01-19T22:49:01.737Z,99247.16
2023-01-19T22:51:29.722Z,99244.59
2023-01-19T22:53:56.442Z,99244.72
2023-01-19T22:56:27.859Z,99247.34
2023-01-19T22:58:54.948Z,99259.31
2023-01-19T23:01:22.465Z,99265.44
2023-01-19T23:03:49.257Z,99259.44
2023-01-19T23:06:18.587Z,99258.84
2023-01-19T23:08:45.041Z,99261.38
2023-01-19T23:11:14.112Z,99253.78
2023-01-19T23:13:40.920Z,99260.91
2023-01-19T23:16:08.429Z,99269.75
2023-01-19T23:18:35.098Z,99261.28
2023-01-19T23:21:05.638Z,99260.59
2023-01-19T23:23:33.042Z,99260.78
2023-01-19T23:26:01.466Z,99258.25
2023-01-19T23:28:28.259Z,99264.34
2023-01-19T23:30:54.931Z,99265.13
2023-01-19T23:33:21.454Z,99264.41
2023-01-19T23:35:47.915Z,99261.00
2023-01-19T23:38:14.333Z,99268.75
2023-01-19T23:40:40.783Z,99282.72
2023-01-19T23:43:07.268Z,99276.75
2023-01-19T23:45:35.233Z,99271.56
2023-01-19T23:48:03.667Z,99276.00
2023-01-19T23:50:30.169Z,99283.81
2023-01-19T23:52:56.556Z,99272.78
2023-01-19T23:55:22.963Z,99288.31
2023-01-19T23:57:49.478Z,99283.13
